Time;durP1;ratioP1;P1;durP2;ratioP2;P2;SDS_P1;SDS_P2;PMS_P1;PMS_P2;Temp;Humidity;BMP_temperature;BMP_pressure;BME280_temperature;BME280_humidity;BME280_pressure;Samples;Min_cycle;Max_cycle;Signal;HPM_P1;HPM_P2
2020/12/09 01:35:55;;;;;;;45.47;24.70;;;4.50;99.90;;;;;;5505804;23;20627;-59
2020/12/09 01:38:21;;;;;;;56.13;27.23;;;4.40;99.90;;;;;;4902721;29;20509;-57
2020/12/09 01:40:48;;;;;;;54.20;29.13;;;4.40;99.90;;;;;;4898406;29;20490;-57
2020/12/09 01:43:14;;;;;;;48.13;24.90;;;4.40;99.90;;;;;;4898524;29;20973;-58
2020/12/09 01:45:40;;;;;;;50.47;25.43;;;4.40;99.90;;;;;;4898507;29;20526;-54
2020/12/09 01:48:09;;;;;;;59.67;28.20;;;4.30;99.90;;;;;;4898561;29;20478;-58
2020/12/09 01:50:36;;;;;;;51.23;25.40;;;4.40;99.90;;;;;;4898465;29;20446;-56
2020/12/09 01:53:03;;;;;;;42.17;22.90;;;4.40;99.90;;;;;;4898599;29;20533;-57
2020/12/09 01:55:30;;;;;;;55.63;27.40;;;4.30;99.90;;;;;;4898099;29;20608;-58
2020/12/09 01:57:56;;;;;;;51.73;27.90;;;4.30;99.90;;;;;;4898440;29;20454;-58
2020/12/09 02:00:23;;;;;;;52.70;29.00;;;4.30;99.90;;;;;;4898558;29;20510;-58
2020/12/09 02:02:50;;;;;;;59.17;27.83;;;4.30;99.90;;;;;;4898358;29;20466;-59
2020/12/09 02:05:17;;;;;;;43.03;26.53;;;4.40;99.90;;;;;;4898265;29;20458;-60
2020/12/09 02:07:44;;;;;;;43.87;25.57;;;4.30;99.90;;;;;;4898500;29;20451;-57
2020/12/09 02:10:14;;;;;;;46.90;27.30;;;4.40;99.90;;;;;;4901318;29;20541;-58
2020/12/09 02:12:41;;;;;;;50.13;27.53;;;4.40;99.90;;;;;;4920903;29;20488;-57
2020/12/09 02:15:08;;;;;;;48.10;26.30;;;4.40;99.90;;;;;;4921103;29;20450;-58
2020/12/09 02:17:35;;;;;;;51.53;27.10;;;4.50;99.90;;;;;;4920327;29;20466;-58
2020/12/09 02:20:01;;;;;;;55.17;26.70;;;4.40;99.90;;;;;;4920884;29;20485;-57
2020/12/09 02:22:29;;;;;;;50.10;25.23;;;4.50;99.90;;;;;;4920579;29;20487;-59
2020/12/09 02:24:55;;;;;;;53.53;27.97;;;4.50;99.90;;;;;;4921072;29;20461;-58
2020/12/09 02:27:22;;;;;;;45.13;27.00;;;4.50;99.90;;;;;;4920501;29;20449;-58
2020/12/09 02:29:48;;;;;;;50.33;27.37;;;4.50;99.90;;;;;;4920481;29;20480;-59
2020/12/09 02:32:14;;;;;;;49.40;25.57;;;4.50;99.90;;;;;;4920544;29;20980;-58
2020/12/09 02:34:41;;;;;;;49.03;25.40;;;4.50;99.90;;;;;;4920496;29;20489;-58
2020/12/09 02:37:07;;;;;;;51.07;26.63;;;4.50;99.90;;;;;;4902324;29;20569;-58
2020/12/09 02:39:36;;;;;;;52.33;29.07;;;4.50;99.90;;;;;;4900873;29;20577;-58
2020/12/09 02:42:03;;;;;;;60.53;30.13;;;4.50;99.90;;;;;;4901312;29;20536;-55
2020/12/09 02:44:29;;;;;;;41.53;24.90;;;4.50;99.90;;;;;;4886617;29;20849;-59
2020/12/09 02:46:56;;;;;;;48.07;27.97;;;4.50;99.90;;;;;;4882654;29;20841;-58
2020/12/09 02:49:22;;;;;;;58.10;27.10;;;4.50;99.90;;;;;;4882541;29;20550;-61
2020/12/09 02:51:49;;;;;;;43.77;25.43;;;4.50;99.90;;;;;;4882479;29;20554;-57
2020/12/09 02:54:16;;;;;;;51.23;27.20;;;4.50;99.90;;;;;;4882647;29;20539;-59
2020/12/09 02:56:43;;;;;;;55.43;29.03;;;4.50;99.90;;;;;;4882404;29;20998;-59
2020/12/09 02:59:10;;;;;;;53.60;27.40;;;4.50;99.90;;;;;;4882428;29;20497;-59
2020/12/09 03:01:36;;;;;;;54.00;28.33;;;4.50;99.90;;;;;;4882283;29;20583;-57
2020/12/09 03:04:03;;;;;;;53.50;26.40;;;4.50;99.90;;;;;;4882504;29;20563;-58
2020/12/09 03:06:30;;;;;;;54.30;28.03;;;4.50;99.90;;;;;;4882592;29;20451;-57
2020/12/09 03:08:56;;;;;;;51.50;27.87;;;4.50;99.90;;;;;;4882114;29;20519;-58
2020/12/09 03:11:23;;;;;;;55.00;28.40;;;4.50;99.90;;;;;;4882370;29;20503;-61
2020/12/09 03:13:50;;;;;;;58.73;26.27;;;4.50;99.90;;;;;;4882092;29;20487;-58
2020/12/09 03:16:17;;;;;;;59.27;26.40;;;4.50;99.90;;;;;;4881744;29;20554;-58
2020/12/09 03:21:19;;;;;;;52.07;26.13;;;4.50;99.90;;;;;;5834267;23;20688;-61
2020/12/09 03:23:46;;;;;;;55.87;28.13;;;4.50;99.90;;;;;;4903149;23;20494;-64
2020/12/09 03:26:12;;;;;;;50.90;26.63;;;4.40;99.90;;;;;;4900794;29;20459;-59
2020/12/09 03:28:39;;;;;;;55.13;27.83;;;4.40;99.90;;;;;;4900582;29;20545;-59
2020/12/09 03:31:06;;;;;;;47.90;24.67;;;4.40;99.90;;;;;;4890509;29;20494;-56
2020/12/09 03:33:33;;;;;;;50.97;28.53;;;4.40;99.90;;;;;;4881782;29;20451;-59
2020/12/09 03:36:00;;;;;;;50.73;28.30;;;4.40;99.90;;;;;;4881917;29;20526;-58
2020/12/09 03:38:26;;;;;;;51.70;28.50;;;4.40;99.90;;;;;;4881710;29;20443;-60
2020/12/09 03:40:52;;;;;;;48.13;24.70;;;4.40;99.90;;;;;;4881647;29;20499;-59
2020/12/09 03:43:19;;;;;;;62.83;30.87;;;4.40;99.90;;;;;;4881896;29;20451;-58
2020/12/09 03:45:45;;;;;;;57.80;28.23;;;4.40;99.90;;;;;;4881589;29;20917;-58
2020/12/09 03:48:12;;;;;;;40.70;25.37;;;4.40;99.90;;;;;;4881121;29;20502;-57
2020/12/09 03:50:39;;;;;;;50.07;27.37;;;4.40;99.90;;;;;;4881430;29;20486;-57
2020/12/09 03:53:05;;;;;;;46.70;27.70;;;4.50;99.90;;;;;;4881528;29;20459;-59
2020/12/09 03:55:32;;;;;;;51.00;28.43;;;4.50;99.90;;;;;;4881454;29;20555;-59
2020/12/09 03:58:00;;;;;;;55.17;28.47;;;4.40;99.90;;;;;;4881336;29;20451;-59
2020/12/09 04:00:27;;;;;;;52.90;28.27;;;4.50;99.90;;;;;;4881369;29;20487;-59
2020/12/09 04:02:53;;;;;;;57.70;27.90;;;4.50;99.90;;;;;;4882217;29;20567;-61
2020/12/09 04:05:20;;;;;;;47.97;25.83;;;4.50;99.90;;;;;;4881153;29;20499;-61
2020/12/09 04:07:47;;;;;;;60.00;30.17;;;4.50;99.90;;;;;;4881206;29;21005;-61
2020/12/09 04:10:13;;;;;;;52.07;30.63;;;4.50;99.90;;;;;;4880957;29;20491;-61
2020/12/09 04:12:40;;;;;;;56.67;27.47;;;4.50;99.90;;;;;;4881361;29;20455;-61
2020/12/09 04:15:06;;;;;;;54.87;28.87;;;4.40;99.90;;;;;;4881118;29;20971;-60
2020/12/09 04:17:33;;;;;;;59.13;30.70;;;4.40;99.90;;;;;;4881187;29;20872;-60
2020/12/09 04:19:59;;;;;;;47.37;29.50;;;4.40;99.90;;;;;;4881186;29;20479;-61
2020/12/09 04:22:26;;;;;;;54.40;28.63;;;4.40;99.90;;;;;;4881005;29;20483;-58
2020/12/09 04:24:53;;;;;;;52.67;28.90;;;4.40;99.90;;;;;;4881240;29;20483;-61
2020/12/09 04:27:19;;;;;;;60.23;30.23;;;4.50;99.90;;;;;;4881252;29;20468;-61
2020/12/09 04:29:45;;;;;;;59.17;28.57;;;4.50;99.90;;;;;;4881089;29;20547;-61
2020/12/09 04:32:12;;;;;;;59.13;30.80;;;4.50;99.90;;;;;;4880749;29;20559;-61
2020/12/09 04:34:38;;;;;;;52.07;28.20;;;4.50;99.90;;;;;;4880766;29;20862;-62
2020/12/09 04:37:05;;;;;;;58.50;29.03;;;4.50;99.90;;;;;;4881232;29;20554;-62
2020/12/09 04:39:33;;;;;;;56.93;31.80;;;4.50;99.90;;;;;;4880940;29;20994;-62
2020/12/09 06:01:43;;;;;;;64.10;34.70;;;4.30;99.90;;;;;;5974064;23;21739;-60
2020/12/09 06:04:10;;;;;;;63.87;34.60;;;4.30;99.90;;;;;;4932466;29;20457;-64
2020/12/09 06:06:38;;;;;;;71.23;35.57;;;4.30;99.90;;;;;;4927557;29;20533;-64
2020/12/09 06:09:04;;;;;;;74.30;34.90;;;4.30;99.90;;;;;;4928697;29;20836;-64
2020/12/09 06:11:32;;;;;;;62.37;34.10;;;4.30;99.90;;;;;;4934591;29;20500;-64
2020/12/09 06:13:59;;;;;;;69.47;34.43;;;4.20;99.90;;;;;;4931765;29;20457;-64
2020/12/09 06:16:25;;;;;;;71.33;34.40;;;4.20;99.90;;;;;;4928821;29;20521;-64
2020/12/09 06:18:54;;;;;;;60.97;34.03;;;4.20;99.90;;;;;;4928962;29;20461;-64
2020/12/09 06:21:21;;;;;;;70.50;33.10;;;4.20;99.90;;;;;;4928162;29;20485;-64
2020/12/09 06:23:51;;;;;;;66.27;35.17;;;4.20;99.90;;;;;;4928893;29;20594;-65
2020/12/09 06:26:18;;;;;;;67.03;34.27;;;4.20;99.90;;;;;;4928857;29;20446;-63
2020/12/09 06:28:46;;;;;;;69.30;36.40;;;4.20;99.90;;;;;;4928228;29;20464;-64
2020/12/09 06:31:14;;;;;;;61.87;32.63;;;4.20;99.90;;;;;;4928363;29;20500;-64
2020/12/09 06:33:42;;;;;;;70.77;34.97;;;4.20;99.90;;;;;;4930485;29;20525;-64
2020/12/09 06:36:21;;;;;;;62.20;32.17;;;4.10;99.90;;;;;;4937868;29;20442;-64
2020/12/09 06:39:11;;;;;;;76.07;37.47;;;4.10;99.90;;;;;;4938036;29;20440;-64
2020/12/09 06:41:41;;;;;;;61.57;32.50;;;4.20;99.90;;;;;;4933086;29;20486;-64
2020/12/09 06:44:09;;;;;;;68.00;35.20;;;4.10;99.90;;;;;;4938633;29;20457;-64
2020/12/09 06:46:42;;;;;;;67.93;35.47;;;4.10;99.90;;;;;;4938976;29;20457;-64
2020/12/09 06:49:33;;;;;;;65.23;36.27;;;4.10;99.90;;;;;;4938856;29;20544;-64
2020/12/09 06:52:01;;;;;;;66.57;33.67;;;4.10;99.90;;;;;;4937182;29;20442;-64
2020/12/09 06:54:38;;;;;;;58.83;33.70;;;4.10;99.90;;;;;;4937727;29;20726;-64
2020/12/09 06:57:17;;;;;;;64.03;33.60;;;4.10;99.90;;;;;;4936205;29;20488;-65
2020/12/09 06:59:44;;;;;;;58.73;32.27;;;4.10;99.90;;;;;;4938226;29;20441;-64
2020/12/09 07:02:10;;;;;;;56.90;30.87;;;4.10;99.90;;;;;;4937068;29;20481;-63
2020/12/09 07:05:07;;;;;;;62.40;32.17;;;4.10;99.90;;;;;;4927797;29;20980;-64
2020/12/09 07:07:40;;;;;;;58.00;33.37;;;4.10;99.90;;;;;;4921131;29;20921;-63
2020/12/09 07:10:12;;;;;;;64.80;33.87;;;4.00;99.90;;;;;;4927476;29;20485;-64
2020/12/09 07:12:39;;;;;;;64.90;33.60;;;4.00;99.90;;;;;;4930161;29;20434;-64
2020/12/09 07:15:05;;;;;;;57.57;28.70;;;4.00;99.90;;;;;;4933287;29;20458;-64
2020/12/09 07:17:32;;;;;;;67.40;35.33;;;4.00;99.90;;;;;;4927252;29;20454;-64
2020/12/09 07:19:59;;;;;;;67.50;32.37;;;4.00;99.90;;;;;;4927705;29;20446;-63
2020/12/09 07:22:27;;;;;;;69.87;32.30;;;4.00;99.90;;;;;;4927523;29;20468;-64
2020/12/09 07:24:55;;;;;;;66.23;34.57;;;4.10;99.90;;;;;;4928084;29;20491;-64
2020/12/09 07:27:24;;;;;;;64.60;33.83;;;4.10;99.90;;;;;;4931826;29;20494;-65
2020/12/09 07:29:56;;;;;;;61.57;32.07;;;4.10;99.90;;;;;;4937184;29;20481;-64
2020/12/09 07:32:24;;;;;;;60.27;32.43;;;4.10;99.90;;;;;;4934041;29;20476;-65
2020/12/09 07:34:52;;;;;;;64.40;32.37;;;4.20;99.90;;;;;;4926549;29;20466;-64
2020/12/09 07:37:19;;;;;;;64.13;36.07;;;4.20;99.90;;;;;;4925504;29;20477;-64
2020/12/09 07:39:48;;;;;;;59.27;34.53;;;4.10;99.90;;;;;;4925042;29;20449;-64
2020/12/09 07:42:16;;;;;;;59.67;32.13;;;4.10;99.90;;;;;;4927915;29;20481;-64
2020/12/09 07:44:54;;;;;;;57.67;31.60;;;4.10;99.90;;;;;;4928986;29;20450;-64
2020/12/09 07:47:22;;;;;;;60.00;33.10;;;4.10;99.90;;;;;;4937752;29;20786;-64
2020/12/09 07:49:54;;;;;;;66.20;33.87;;;4.10;99.90;;;;;;4936650;29;20493;-64
2020/12/09 07:52:26;;;;;;;60.33;34.53;;;4.10;99.90;;;;;;4934330;29;20817;-61
2020/12/09 07:54:58;;;;;;;65.53;33.10;;;4.10;99.90;;;;;;4928260;29;20488;-61
2020/12/09 07:57:32;;;;;;;65.60;32.03;;;4.10;99.90;;;;;;4929118;29;20453;-61
2020/12/09 07:59:59;;;;;;;64.80;33.60;;;4.10;99.90;;;;;;4936432;29;20445;-62
2020/12/09 08:02:27;;;;;;;59.67;29.17;;;4.10;99.90;;;;;;4927943;29;20491;-63
2020/12/09 08:05:22;;;;;;;57.63;32.47;;;4.10;99.90;;;;;;4937416;29;20448;-70
2020/12/09 08:07:51;;;;;;;58.80;34.67;;;4.10;99.90;;;;;;4873272;29;20446;-71
2020/12/09 08:10:21;;;;;;;70.60;36.90;;;4.10;99.90;;;;;;4928058;29;20481;-72
2020/12/09 12:20:40;;;;;;;51.40;25.50;;;5.10;99.90;;;;;;5512220;23;20503;-55
2020/12/09 12:23:07;;;;;;;54.20;27.60;;;5.10;99.90;;;;;;4964444;29;20487;-55
2020/12/09 12:25:34;;;;;;;54.20;29.13;;;5.10;99.90;;;;;;4957710;29;20463;-55
2020/12/09 12:28:01;;;;;;;52.67;28.70;;;5.10;99.90;;;;;;4959952;29;20449;-59
2020/12/09 12:30:28;;;;;;;56.30;26.57;;;5.10;99.90;;;;;;4956712;29;20448;-60
2020/12/09 12:32:54;;;;;;;51.80;28.43;;;5.10;99.90;;;;;;4955796;29;20444;-61
2020/12/09 12:38:11;;;;;;;51.17;29.03;;;5.10;99.90;;;;;;6029552;23;20411;-59
2020/12/09 12:40:41;;;;;;;51.77;26.20;;;5.10;99.90;;;;;;4922986;29;20486;-56
2020/12/09 12:43:08;;;;;;;55.57;26.57;;;5.00;99.90;;;;;;4920866;29;20477;-58
2020/12/09 12:45:35;;;;;;;55.07;26.97;;;5.00;99.90;;;;;;4926882;29;20505;-58
2020/12/09 12:48:04;;;;;;;54.03;27.80;;;5.00;99.90;;;;;;4916458;29;20487;-54
2020/12/09 12:50:30;;;;;;;49.63;25.20;;;5.00;99.90;;;;;;4920335;29;20445;-59
2020/12/09 12:52:57;;;;;;;54.53;27.23;;;4.90;99.90;;;;;;4912808;29;20451;-59
2020/12/09 12:55:24;;;;;;;53.80;25.87;;;4.90;99.90;;;;;;4910523;29;20521;-60
2020/12/09 12:57:52;;;;;;;55.30;25.87;;;5.00;99.90;;;;;;4907753;29;20541;-59
2020/12/09 13:00:20;;;;;;;50.43;26.20;;;4.90;99.90;;;;;;4908646;29;20490;-55
2020/12/09 13:02:47;;;;;;;58.93;29.83;;;4.90;99.90;;;;;;4914451;29;20458;-61
2020/12/09 13:05:14;;;;;;;58.37;25.43;;;5.00;99.90;;;;;;4914874;29;20462;-61
2020/12/09 13:07:42;;;;;;;54.80;26.90;;;4.90;99.90;;;;;;4910527;29;20471;-61
2020/12/09 13:10:08;;;;;;;64.33;27.70;;;4.90;99.90;;;;;;4913066;29;20808;-57
2020/12/09 13:12:35;;;;;;;52.87;26.80;;;4.90;99.90;;;;;;4906852;29;20450;-57
2020/12/09 13:15:03;;;;;;;50.20;29.03;;;4.90;99.90;;;;;;4914974;29;20466;-61
2020/12/09 13:17:30;;;;;;;60.83;27.37;;;4.90;99.90;;;;;;4916365;29;20446;-62
2020/12/09 13:19:57;;;;;;;69.03;29.43;;;4.90;99.90;;;;;;4912822;29;21261;-61
2020/12/09 13:22:24;;;;;;;53.73;27.23;;;4.90;99.90;;;;;;4914454;29;20504;-58
2020/12/09 13:24:50;;;;;;;55.00;26.20;;;4.90;99.90;;;;;;4928513;29;20457;-59
2020/12/09 13:27:19;;;;;;;59.67;26.50;;;4.90;99.90;;;;;;4915076;29;20957;-61
2020/12/09 13:29:46;;;;;;;53.57;28.17;;;4.90;99.90;;;;;;4906784;29;20880;-59
2020/12/09 13:32:14;;;;;;;56.37;27.47;;;4.80;99.90;;;;;;4917360;29;20482;-60
2020/12/09 13:34:40;;;;;;;63.57;27.37;;;4.70;99.90;;;;;;4912162;29;20529;-59
2020/12/09 13:37:07;;;;;;;49.47;25.23;;;4.70;99.90;;;;;;4914918;29;20454;-59
2020/12/09 13:39:34;;;;;;;53.30;26.10;;;4.80;99.90;;;;;;4918862;29;20490;-60
2020/12/09 13:42:01;;;;;;;56.90;25.53;;;4.80;99.90;;;;;;4922341;29;20450;-61
2020/12/09 13:44:27;;;;;;;52.47;27.70;;;4.80;99.90;;;;;;4923251;29;20457;-60
2020/12/09 13:46:54;;;;;;;50.90;27.33;;;4.70;99.90;;;;;;4923559;29;20468;-59
2020/12/09 13:49:22;;;;;;;50.07;24.70;;;4.70;99.90;;;;;;4924247;29;21589;-57
2020/12/09 13:51:49;;;;;;;53.70;27.57;;;4.70;99.90;;;;;;4921602;29;20553;-60
2020/12/09 13:54:15;;;;;;;58.60;28.03;;;4.80;99.90;;;;;;4923173;29;20471;-60
2020/12/09 13:56:42;;;;;;;54.33;27.40;;;4.80;99.90;;;;;;4923243;29;20445;-61
2020/12/09 13:59:09;;;;;;;51.03;27.23;;;4.80;99.90;;;;;;4928940;29;20472;-59
2020/12/09 14:01:36;;;;;;;57.83;26.20;;;4.80;99.90;;;;;;4932456;29;20456;-60
2020/12/09 14:04:02;;;;;;;58.93;30.77;;;4.80;99.90;;;;;;4931186;29;20450;-59
2020/12/09 14:06:30;;;;;;;53.23;25.70;;;4.70;99.90;;;;;;4935633;29;20460;-60
2020/12/09 14:08:58;;;;;;;62.97;30.37;;;4.80;99.90;;;;;;4936527;29;20476;-57
2020/12/09 14:11:26;;;;;;;48.13;26.03;;;4.80;99.90;;;;;;4934250;29;20477;-57
2020/12/09 14:13:55;;;;;;;50.60;24.27;;;4.80;99.90;;;;;;4923943;29;20461;-60
2020/12/09 14:16:22;;;;;;;59.47;25.00;;;4.80;99.90;;;;;;4925698;29;20453;-56
2020/12/09 14:18:49;;;;;;;54.17;26.40;;;4.80;99.90;;;;;;4925731;29;20529;-62
2020/12/09 14:21:16;;;;;;;53.23;24.47;;;4.80;99.90;;;;;;4930250;29;20454;-62
2020/12/09 14:23:48;;;;;;;55.70;25.07;;;4.80;99.90;;;;;;4924382;29;20449;-63
2020/12/09 14:26:21;;;;;;;62.63;28.03;;;4.70;99.90;;;;;;4927033;29;20501;-62
2020/12/09 14:28:48;;;;;;;59.53;26.77;;;4.80;99.90;;;;;;4934525;29;20459;-62
2020/12/09 14:31:16;;;;;;;58.20;26.50;;;4.70;99.90;;;;;;4935066;29;20505;-62
2020/12/09 14:33:45;;;;;;;64.47;25.33;;;4.70;99.90;;;;;;4936846;29;20492;-61
2020/12/09 14:36:12;;;;;;;57.60;28.80;;;4.70;99.90;;;;;;4932836;29;20457;-60
2020/12/09 14:38:40;;;;;;;52.70;27.10;;;4.70;99.90;;;;;;4936425;29;20473;-61
2020/12/09 14:41:10;;;;;;;55.90;25.53;;;4.70;99.90;;;;;;4936184;29;20441;-58
2020/12/09 14:43:40;;;;;;;55.73;26.70;;;4.70;99.90;;;;;;4936485;29;20455;-61
2020/12/09 14:46:07;;;;;;;62.93;27.77;;;4.70;99.90;;;;;;4935618;29;20481;-61
2020/12/09 14:48:34;;;;;;;53.40;26.37;;;4.70;99.90;;;;;;4936876;29;20518;-61
2020/12/09 14:51:00;;;;;;;50.60;24.67;;;4.70;99.90;;;;;;4936057;29;20470;-59
2020/12/09 14:53:27;;;;;;;52.50;23.13;;;4.80;99.90;;;;;;4936263;29;20467;-58
2020/12/09 14:55:54;;;;;;;53.30;26.00;;;4.70;99.90;;;;;;4937005;29;20457;-61
2020/12/09 14:58:23;;;;;;;61.50;27.40;;;4.70;99.90;;;;;;4935745;29;20472;-60
2020/12/09 15:00:50;;;;;;;57.47;25.63;;;4.70;99.90;;;;;;4935691;29;20457;-59
2020/12/09 15:03:19;;;;;;;61.67;23.30;;;4.70;99.90;;;;;;4936589;29;20450;-58
2020/12/09 15:05:45;;;;;;;53.43;26.67;;;4.70;99.90;;;;;;4936690;29;20441;-59
2020/12/09 15:08:12;;;;;;;60.23;26.97;;;4.60;99.90;;;;;;4937518;29;20446;-57
2020/12/09 15:10:39;;;;;;;62.13;26.53;;;4.60;99.90;;;;;;4935548;29;20485;-59
2020/12/09 15:13:06;;;;;;;65.97;26.33;;;4.70;99.90;;;;;;4937063;29;20449;-58
2020/12/09 15:15:34;;;;;;;60.87;27.47;;;4.70;99.90;;;;;;4935637;29;20576;-56
2020/12/09 15:18:01;;;;;;;53.00;26.27;;;4.70;99.90;;;;;;4936000;29;20529;-58
2020/12/09 15:20:28;;;;;;;63.70;24.77;;;4.60;99.90;;;;;;4931514;29;20972;-59
2020/12/09 15:22:55;;;;;;;54.80;24.70;;;4.70;99.90;;;;;;4936090;29;20524;-61
2020/12/09 15:25:21;;;;;;;57.10;28.57;;;4.70;99.90;;;;;;4932069;29;20450;-59
2020/12/09 15:27:48;;;;;;;61.83;28.10;;;4.70;99.90;;;;;;4935561;29;20450;-59
2020/12/09 15:30:18;;;;;;;60.50;28.40;;;4.70;99.90;;;;;;4934672;29;20461;-57
2020/12/09 15:32:48;;;;;;;50.63;24.97;;;4.70;99.90;;;;;;4935268;29;20454;-62
2020/12/09 15:35:15;;;;;;;59.10;24.60;;;4.70;99.90;;;;;;4927752;29;20517;-59
2020/12/09 15:37:43;;;;;;;60.30;26.70;;;4.60;99.90;;;;;;4936102;29;20469;-60
2020/12/09 15:40:10;;;;;;;60.17;27.40;;;4.60;99.90;;;;;;4927492;29;20564;-60
2020/12/09 15:42:40;;;;;;;60.40;26.27;;;4.60;99.90;;;;;;4920988;29;21434;-60
2020/12/09 15:45:09;;;;;;;56.27;26.73;;;4.60;99.90;;;;;;4925912;29;20462;-60
2020/12/09 15:47:40;;;;;;;58.40;26.67;;;4.50;99.90;;;;;;4926677;29;20533;-61
2020/12/09 15:50:09;;;;;;;54.07;27.50;;;4.50;99.90;;;;;;4926085;29;20466;-61
2020/12/09 15:52:36;;;;;;;52.60;25.10;;;4.50;99.90;;;;;;4925915;29;20493;-62
2020/12/09 15:55:02;;;;;;;55.20;25.90;;;4.50;99.90;;;;;;4926381;29;20482;-62
2020/12/09 15:57:29;;;;;;;67.90;27.57;;;4.50;99.90;;;;;;4926514;29;20787;-62
2020/12/09 15:59:56;;;;;;;59.47;25.10;;;4.50;99.90;;;;;;4926707;29;20476;-62
2020/12/09 16:02:27;;;;;;;57.10;26.83;;;4.40;99.90;;;;;;4925062;29;20472;-59
2020/12/09 16:04:54;;;;;;;64.90;26.20;;;4.50;99.90;;;;;;4922446;29;20458;-61
2020/12/09 16:07:22;;;;;;;68.33;27.07;;;4.50;99.90;;;;;;4925920;29;20525;-58
2020/12/09 16:09:50;;;;;;;57.10;27.07;;;4.50;99.90;;;;;;4926729;29;20845;-56
2020/12/09 16:12:17;;;;;;;62.37;25.90;;;4.40;99.90;;;;;;4924841;29;20581;-58
2020/12/09 16:14:44;;;;;;;59.03;25.83;;;4.40;99.90;;;;;;4926911;29;20577;-59
2020/12/09 16:17:10;;;;;;;57.20;26.50;;;4.40;99.90;;;;;;4926009;29;20536;-60
2020/12/09 16:19:37;;;;;;;54.73;25.50;;;4.40;99.90;;;;;;4926639;29;20541;-59
2020/12/09 16:22:05;;;;;;;57.97;28.57;;;4.40;99.90;;;;;;4925815;29;20523;-59
2020/12/09 16:24:34;;;;;;;53.23;26.40;;;4.40;99.90;;;;;;4926402;29;20491;-59
2020/12/09 16:27:00;;;;;;;58.53;25.53;;;4.30;99.90;;;;;;4926674;29;20464;-58
2020/12/09 16:29:27;;;;;;;67.37;28.83;;;4.30;99.90;;;;;;4924001;29;20457;-58
2020/12/09 16:31:54;;;;;;;60.13;27.90;;;4.30;99.90;;;;;;4923191;29;20490;-57
2020/12/09 16:34:21;;;;;;;59.87;29.13;;;4.30;99.90;;;;;;4929788;29;20461;-54
2020/12/09 16:36:48;;;;;;;57.37;28.53;;;4.20;99.90;;;;;;4935423;29;20465;-55
2020/12/09 16:39:15;;;;;;;59.20;25.70;;;4.20;99.90;;;;;;4934762;29;20893;-60
2020/12/09 16:41:46;;;;;;;62.93;28.57;;;4.20;99.90;;;;;;4925887;29;20449;-60
2020/12/09 16:44:13;;;;;;;66.17;28.97;;;4.10;99.90;;;;;;4926192;29;20445;-59
2020/12/09 16:46:40;;;;;;;60.43;26.57;;;4.20;99.90;;;;;;4922411;29;20454;-58
2020/12/09 16:49:07;;;;;;;54.13;23.40;;;4.10;99.90;;;;;;4925313;29;20454;-61
2020/12/09 16:51:33;;;;;;;59.87;25.53;;;4.10;99.90;;;;;;4918075;29;20489;-62
2020/12/09 16:54:03;;;;;;;60.30;26.03;;;4.20;99.90;;;;;;4925853;29;20457;-60
2020/12/09 16:56:30;;;;;;;56.43;26.10;;;4.20;99.90;;;;;;4925200;29;20842;-61
2020/12/09 16:58:58;;;;;;;65.23;26.73;;;4.20;99.90;;;;;;4925801;29;20494;-62
2020/12/09 17:01:25;;;;;;;63.57;29.37;;;4.30;99.90;;;;;;4924389;29;20828;-61
2020/12/09 17:03:52;;;;;;;49.97;23.97;;;4.20;99.90;;;;;;4925068;29;20529;-63
2020/12/09 17:06:19;;;;;;;54.07;25.30;;;4.20;99.90;;;;;;4924898;29;20466;-61
2020/12/09 17:08:46;;;;;;;57.53;26.57;;;4.20;99.90;;;;;;4926156;29;20454;-59
2020/12/09 17:11:13;;;;;;;63.53;27.57;;;4.10;99.90;;;;;;4924779;29;20485;-59
2020/12/09 17:13:39;;;;;;;53.40;24.93;;;4.10;99.90;;;;;;4935911;29;20469;-59
2020/12/09 17:16:11;;;;;;;57.77;25.20;;;4.10;99.90;;;;;;4936537;29;20469;-60
2020/12/09 17:18:38;;;;;;;53.77;25.33;;;4.10;99.90;;;;;;4928115;29;20454;-61
2020/12/09 17:21:05;;;;;;;47.80;21.90;;;4.10;99.90;;;;;;4923935;29;20452;-60
2020/12/09 17:23:32;;;;;;;60.03;26.50;;;4.10;99.90;;;;;;4917460;29;20485;-60
2020/12/09 17:26:01;;;;;;;54.90;25.77;;;4.00;99.90;;;;;;4925229;29;20473;-61
2020/12/09 17:28:28;;;;;;;67.80;27.90;;;4.10;99.90;;;;;;4925873;29;20529;-59
2020/12/09 17:30:54;;;;;;;60.77;25.93;;;4.10;99.90;;;;;;4924325;29;20499;-60
2020/12/09 17:33:22;;;;;;;64.83;27.67;;;4.10;99.90;;;;;;4921356;29;20529;-60
2020/12/09 17:35:49;;;;;;;58.83;27.97;;;4.10;99.90;;;;;;4927435;29;20458;-60
2020/12/09 17:38:16;;;;;;;61.77;27.30;;;4.00;99.90;;;;;;4935474;29;20453;-61
2020/12/09 17:40:43;;;;;;;64.13;25.23;;;4.10;99.90;;;;;;4934698;29;20454;-59
2020/12/09 17:43:09;;;;;;;56.00;24.10;;;4.10;99.90;;;;;;4935116;29;20470;-59
2020/12/09 17:45:36;;;;;;;57.13;29.00;;;4.10;99.90;;;;;;4930349;29;20477;-59
2020/12/09 17:48:03;;;;;;;60.77;28.50;;;4.10;99.90;;;;;;4924754;29;20453;-57
2020/12/09 17:50:31;;;;;;;57.93;24.00;;;4.10;99.90;;;;;;4924375;29;20600;-58
2020/12/09 17:52:58;;;;;;;55.90;28.30;;;4.10;99.90;;;;;;4921850;29;20457;-59
2020/12/09 17:55:25;;;;;;;72.30;27.60;;;4.10;99.90;;;;;;4932119;29;20458;-60
2020/12/09 17:57:52;;;;;;;57.67;25.43;;;4.10;99.90;;;;;;4935901;29;20465;-59
2020/12/09 18:00:18;;;;;;;55.63;28.00;;;4.10;99.90;;;;;;4935338;29;20458;-60
2020/12/09 18:02:45;;;;;;;56.97;26.17;;;4.10;99.90;;;;;;4933778;29;20442;-57
2020/12/09 18:05:12;;;;;;;55.83;24.73;;;4.10;99.90;;;;;;4933023;29;20916;-58
2020/12/09 18:07:40;;;;;;;59.73;27.40;;;4.10;99.90;;;;;;4924495;29;21003;-58
2020/12/09 18:10:07;;;;;;;58.77;27.27;;;4.10;99.90;;;;;;4926134;29;20492;-59
2020/12/09 18:12:33;;;;;;;60.43;25.90;;;4.10;99.90;;;;;;4923928;29;20560;-56
2020/12/09 18:15:00;;;;;;;67.37;27.43;;;4.10;99.90;;;;;;4925318;29;20470;-58
2020/12/09 18:17:27;;;;;;;56.20;26.30;;;4.10;99.90;;;;;;4924575;29;20457;-60
2020/12/09 18:19:54;;;;;;;59.27;29.53;;;4.10;99.90;;;;;;4923887;29;20622;-61
2020/12/09 18:22:20;;;;;;;61.17;24.87;;;4.00;99.90;;;;;;4919759;29;20457;-62
2020/12/09 18:24:48;;;;;;;72.60;28.10;;;4.10;99.90;;;;;;4924269;29;20453;-60
2020/12/09 18:27:15;;;;;;;57.70;28.30;;;4.00;99.90;;;;;;4924155;29;20460;-60
2020/12/09 18:29:41;;;;;;;55.37;25.27;;;4.00;99.90;;;;;;4924355;29;20488;-58
2020/12/09 18:32:10;;;;;;;62.40;28.73;;;4.10;99.90;;;;;;4922852;29;20516;-60
2020/12/09 18:34:37;;;;;;;65.10;25.13;;;4.10;99.90;;;;;;4925476;29;20525;-62
2020/12/09 18:37:06;;;;;;;51.03;24.80;;;4.10;99.90;;;;;;4925214;29;20458;-60
2020/12/09 18:39:33;;;;;;;62.33;26.60;;;4.00;99.90;;;;;;4925425;29;20481;-61
2020/12/09 18:42:00;;;;;;;59.33;26.13;;;4.00;99.90;;;;;;4924069;29;20745;-60
2020/12/09 18:44:30;;;;;;;59.83;25.80;;;4.10;99.90;;;;;;4922374;29;20928;-59
2020/12/09 18:47:00;;;;;;;65.37;25.77;;;4.10;99.90;;;;;;4925463;29;20449;-61
2020/12/09 18:49:27;;;;;;;59.50;25.90;;;4.10;99.90;;;;;;4925308;29;20481;-60
2020/12/09 18:51:54;;;;;;;60.97;27.13;;;4.10;99.90;;;;;;4924491;29;20519;-59
2020/12/09 18:54:21;;;;;;;107.47;50.40;;;4.10;99.90;;;;;;4928503;29;20453;-59
2020/12/09 18:56:47;;;;;;;62.53;28.20;;;4.00;99.90;;;;;;4927584;29;20454;-61
2020/12/09 18:59:15;;;;;;;67.57;28.67;;;4.00;99.90;;;;;;4927367;29;20541;-60
2020/12/09 19:01:45;;;;;;;63.03;29.00;;;4.00;99.90;;;;;;4927096;29;20457;-60
2020/12/09 19:04:12;;;;;;;57.97;25.80;;;4.00;99.90;;;;;;4928463;29;20445;-61
2020/12/09 19:06:40;;;;;;;58.80;28.87;;;4.00;99.90;;;;;;4918941;29;20489;-60
2020/12/09 19:09:10;;;;;;;69.77;28.23;;;4.00;99.90;;;;;;4930689;29;20465;-60
2020/12/09 19:11:37;;;;;;;55.93;26.43;;;4.00;99.90;;;;;;4938102;29;20511;-58
2020/12/09 19:14:03;;;;;;;61.57;25.70;;;4.00;99.90;;;;;;4937895;29;20446;-60
2020/12/09 19:16:31;;;;;;;60.80;28.67;;;4.00;99.90;;;;;;4937109;29;20449;-58
2020/12/09 19:18:59;;;;;;;54.97;26.60;;;3.90;99.90;;;;;;4930156;29;20461;-59
2020/12/09 19:21:26;;;;;;;58.57;24.77;;;3.90;99.90;;;;;;4927161;29;20449;-58
2020/12/09 19:23:55;;;;;;;64.67;26.60;;;4.00;99.90;;;;;;4925135;29;20463;-59
2020/12/09 19:26:23;;;;;;;65.73;25.23;;;4.00;99.90;;;;;;4928872;29;20464;-59
2020/12/09 19:28:51;;;;;;;57.90;26.93;;;4.00;99.90;;;;;;4920507;29;20470;-58
2020/12/09 19:31:23;;;;;;;68.90;28.13;;;4.00;99.90;;;;;;4928222;29;20518;-58
2020/12/09 19:33:52;;;;;;;64.30;29.20;;;4.00;99.90;;;;;;4936388;29;20450;-56
2020/12/09 19:36:19;;;;;;;54.20;26.03;;;4.00;99.90;;;;;;4934612;29;20469;-56
2020/12/09 19:38:48;;;;;;;59.33;25.50;;;4.00;99.90;;;;;;4921497;29;20553;-57
2020/12/09 19:41:16;;;;;;;67.17;28.47;;;4.00;99.90;;;;;;4931610;29;20517;-58
2020/12/09 19:43:43;;;;;;;66.53;29.93;;;4.00;99.90;;;;;;4927325;29;20434;-58
2020/12/09 19:46:13;;;;;;;65.43;27.73;;;4.00;99.90;;;;;;4926739;29;20458;-58